createdAt,value
2023-02-14T00:00:43.705Z,1017.91
2023-02-14T00:01:43.685Z,1017.84
2023-02-14T00:02:43.813Z,1017.92
2023-02-14T00:03:43.636Z,1017.89
2023-02-14T00:04:43.711Z,1017.94
2023-02-14T00:05:43.652Z,1017.89
2023-02-14T00:06:43.635Z,1017.94
2023-02-14T00:07:43.600Z,1017.93
2023-02-14T00:08:43.590Z,1017.97
2023-02-14T00:09:43.578Z,1017.90
2023-02-14T00:10:43.569Z,1017.97
2023-02-14T00:11:43.611Z,1018.03
2023-02-14T00:12:43.543Z,1017.97
2023-02-14T00:13:43.530Z,1017.96
2023-02-14T00:14:43.526Z,1018.01
2023-02-14T00:15:43.695Z,1017.97
2023-02-14T00:16:43.497Z,1017.95
2023-02-14T00:17:43.511Z,1017.95
2023-02-14T00:18:43.477Z,1017.94
2023-02-14T00:19:43.460Z,1017.93
2023-02-14T00:20:43.447Z,1017.94
2023-02-14T00:21:43.438Z,1017.90
2023-02-14T00:22:43.428Z,1017.91
2023-02-14T00:23:43.429Z,1017.91
2023-02-14T00:24:43.423Z,1017.90
2023-02-14T00:25:43.388Z,1017.90
2023-02-14T00:26:43.391Z,1017.94
2023-02-14T00:27:43.388Z,1017.92
2023-02-14T00:28:43.391Z,1017.97
2023-02-14T00:29:43.360Z,1017.93
2023-02-14T00:30:43.357Z,1017.94
2023-02-14T00:31:43.358Z,1017.92
2023-02-14T00:32:43.320Z,1017.93
2023-02-14T00:33:43.297Z,1017.96
2023-02-14T00:34:43.339Z,1017.92
2023-02-14T00:35:43.280Z,1017.85
2023-02-14T00:36:43.272Z,1017.88
2023-02-14T00:37:43.249Z,1017.87
2023-02-14T00:38:43.240Z,1017.90
2023-02-14T00:39:43.241Z,1017.87
2023-02-14T00:40:43.260Z,1017.84
2023-02-14T00:41:43.212Z,1017.84
2023-02-14T00:42:43.199Z,1017.84
2023-02-14T00:43:43.181Z,1017.89
2023-02-14T00:44:43.173Z,1017.85
2023-02-14T00:45:43.197Z,1017.88
2023-02-14T00:46:43.216Z,1017.91
2023-02-14T00:47:43.135Z,1017.91
2023-02-14T00:48:43.132Z,1017.87
2023-02-14T00:49:43.197Z,1017.88
2023-02-14T00:50:43.120Z,1017.85
2023-02-14T00:51:43.103Z,1017.95
2023-02-14T00:52:43.112Z,1017.86
2023-02-14T00:53:43.073Z,1017.90
2023-02-14T00:54:43.061Z,1017.86
2023-02-14T00:55:43.050Z,1017.89
2023-02-14T00:56:43.042Z,1017.90
2023-02-14T00:57:43.061Z,1017.81
2023-02-14T00:58:43.011Z,1017.82
2023-02-14T00:59:43.017Z,1017.74
2023-02-14T01:00:43.025Z,1017.84
2023-02-14T01:01:42.981Z,1017.85
2023-02-14T01:02:43.012Z,1017.83
2023-02-14T01:03:42.985Z,1017.83
2023-02-14T01:04:42.950Z,1017.80
2023-02-14T01:05:42.944Z,1017.78
2023-02-14T01:06:42.939Z,1017.77
2023-02-14T01:07:42.935Z,1017.82
2023-02-14T01:08:42.904Z,1017.82
2023-02-14T01:09:42.912Z,1017.87
2023-02-14T01:10:42.871Z,1017.85
2023-02-14T01:11:42.870Z,1017.80
2023-02-14T01:12:42.870Z,1017.81
2023-02-14T01:13:42.856Z,1017.89
2023-02-14T01:14:42.834Z,1017.81
2023-02-14T01:15:42.841Z,1017.85
2023-02-14T01:16:42.865Z,1017.82
2023-02-14T01:17:42.813Z,1017.83
2023-02-14T01:18:42.804Z,1017.78
2023-02-14T01:19:42.789Z,1017.86
2023-02-14T01:20:42.802Z,1017.77
2023-02-14T01:21:42.753Z,1017.85
2023-02-14T01:22:42.751Z,1017.79
2023-02-14T01:23:42.745Z,1017.81
2023-02-14T01:24:42.713Z,1017.79
2023-02-14T01:25:42.712Z,1017.81
2023-02-14T01:26:42.753Z,1017.83
2023-02-14T01:27:42.707Z,1017.80
2023-02-14T01:28:42.681Z,1017.79
2023-02-14T01:29:42.681Z,1017.80
2023-02-14T01:30:42.693Z,1017.83
2023-02-14T01:31:42.743Z,1017.83
2023-02-14T01:32:42.672Z,1017.93
2023-02-14T01:33:42.634Z,1017.89
2023-02-14T01:34:42.615Z,1017.90
2023-02-14T01:35:42.592Z,1017.96
2023-02-14T01:36:42.605Z,1017.93
2023-02-14T01:37:42.589Z,1017.95
2023-02-14T01:38:42.597Z,1017.97
2023-02-14T01:39:42.562Z,1017.99
2023-02-14T01:40:42.633Z,1017.94
2023-02-14T01:41:42.539Z,1017.95
2023-02-14T01:42:42.519Z,1017.93
2023-02-14T01:43:42.525Z,1017.98
2023-02-14T01:44:42.555Z,1017.90
2023-02-14T01:45:42.578Z,1017.93
2023-02-14T01:46:42.487Z,1017.90
2023-02-14T01:47:42.490Z,1017.89
2023-02-14T01:48:42.459Z,1017.89
2023-02-14T01:49:42.478Z,1017.93
2023-02-14T01:50:42.460Z,1017.86
2023-02-14T01:51:42.419Z,1017.90
2023-02-14T01:52:42.409Z,1017.89
2023-02-14T01:53:42.419Z,1017.91
2023-02-14T01:54:42.388Z,1017.91
2023-02-14T01:55:42.401Z,1017.90
2023-02-14T01:56:42.368Z,1017.85
2023-02-14T01:57:42.353Z,1017.89
2023-02-14T01:58:42.352Z,1017.85
2023-02-14T01:59:42.333Z,1017.80
2023-02-14T02:00:42.407Z,1017.86
2023-02-14T02:01:42.407Z,1017.84
2023-02-14T02:02:42.339Z,1017.86
2023-02-14T02:03:42.296Z,1017.80
2023-02-14T02:04:42.290Z,1017.89
2023-02-14T02:05:42.380Z,1017.91
2023-02-14T02:06:42.289Z,1017.89
2023-02-14T02:07:42.292Z,1017.81
2023-02-14T02:08:42.242Z,1017.82
2023-02-14T02:09:42.230Z,1017.82
2023-02-14T02:10:42.234Z,1017.82
2023-02-14T02:11:42.230Z,1017.78
2023-02-14T02:12:42.224Z,1017.72
2023-02-14T02:13:42.206Z,1017.78
2023-02-14T02:14:42.172Z,1017.76
2023-02-14T02:15:42.153Z,1017.83
2023-02-14T02:16:42.190Z,1017.77
2023-02-14T02:17:42.136Z,1017.77
2023-02-14T02:18:42.140Z,1017.76
2023-02-14T02:19:42.111Z,1017.75
2023-02-14T02:20:42.109Z,1017.76
2023-02-14T02:21:42.090Z,1017.82
2023-02-14T02:22:42.121Z,1017.71
2023-02-14T02:23:42.074Z,1017.81
2023-02-14T02:24:42.087Z,1017.81
2023-02-14T02:25:42.040Z,1017.74
2023-02-14T02:26:42.061Z,1017.78
2023-02-14T02:27:42.036Z,1017.77
2023-02-14T02:28:42.026Z,1017.80
2023-02-14T02:29:42.038Z,1017.73
2023-02-14T02:30:42.247Z,1017.69
2023-02-14T02:31:42.085Z,1017.77
2023-02-14T02:32:41.962Z,1017.75
2023-02-14T02:33:41.954Z,1017.69
2023-02-14T02:34:41.955Z,1017.66
2023-02-14T02:35:41.962Z,1017.76
2023-02-14T02:36:41.932Z,1017.68
2023-02-14T02:37:42.019Z,1017.71
2023-02-14T02:38:41.912Z,1017.67
2023-02-14T02:39:41.874Z,1017.61
2023-02-14T02:40:41.893Z,1017.65
2023-02-14T02:41:41.865Z,1017.63
2023-02-14T02:42:41.852Z,1017.64
2023-02-14T02:43:41.878Z,1017.65
2023-02-14T02:44:42.774Z,1017.59
2023-02-14T02:45:41.821Z,1017.62
2023-02-14T02:46:41.861Z,1017.63
2023-02-14T02:47:41.790Z,1017.69
2023-02-14T02:48:41.782Z,1017.64
2023-02-14T02:49:41.771Z,1017.60
2023-02-14T02:50:41.799Z,1017.57
2023-02-14T02:51:41.772Z,1017.66
2023-02-14T02:52:41.786Z,1017.60
2023-02-14T02:53:41.736Z,1017.62
2023-02-14T02:54:41.715Z,1017.68
2023-02-14T02:55:41.712Z,1017.67
2023-02-14T02:56:41.694Z,1017.67
2023-02-14T02:57:41.674Z,1017.63
2023-02-14T02:58:41.715Z,1017.61
2023-02-14T02:59:41.658Z,1017.61
2023-02-14T03:00:41.659Z,1017.63
2023-02-14T03:01:41.681Z,1017.67
2023-02-14T03:02:41.626Z,1017.62
2023-02-14T03:03:41.605Z,1017.68
2023-02-14T03:04:41.700Z,1017.65
2023-02-14T03:05:41.604Z,1017.68
2023-02-14T03:06:41.598Z,1017.71
2023-02-14T03:07:41.597Z,1017.67
2023-02-14T03:08:41.552Z,1017.71
2023-02-14T03:09:41.608Z,1017.68
2023-02-14T03:10:41.597Z,1017.66
2023-02-14T03:11:41.528Z,1017.66
2023-02-14T03:12:41.512Z,1017.68
2023-02-14T03:13:41.495Z,1017.70
2023-02-14T03:14:41.480Z,1017.67
2023-02-14T03:15:41.533Z,1017.74
2023-02-14T03:16:41.704Z,1017.75
2023-02-14T03:17:41.452Z,1017.63
2023-02-14T03:18:41.444Z,1017.64
2023-02-14T03:19:41.428Z,1017.62
2023-02-14T03:20:41.413Z,1017.64
2023-02-14T03:21:41.405Z,1017.61
2023-02-14T03:22:41.414Z,1017.55
2023-02-14T03:23:41.376Z,1017.57
2023-02-14T03:24:41.356Z,1017.56
2023-02-14T03:25:41.365Z,1017.58
2023-02-14T03:26:41.345Z,1017.63
2023-02-14T03:27:41.337Z,1017.59
2023-02-14T03:28:41.343Z,1017.67
2023-02-14T03:29:41.331Z,1017.59
2023-02-14T03:30:41.388Z,1017.56
2023-02-14T03:31:41.474Z,1017.55
2023-02-14T03:32:41.286Z,1017.57
2023-02-14T03:33:41.285Z,1017.59
2023-02-14T03:34:41.245Z,1017.53
2023-02-14T03:35:41.254Z,1017.57
2023-02-14T03:36:41.236Z,1017.59
2023-02-14T03:37:41.241Z,1017.54
2023-02-14T03:38:41.208Z,1017.55
2023-02-14T03:39:41.246Z,1017.62
2023-02-14T03:40:41.198Z,1017.58
2023-02-14T03:41:41.244Z,1017.58
2023-02-14T03:42:41.155Z,1017.54
2023-02-14T03:43:41.157Z,1017.54
2023-02-14T03:44:41.148Z,1017.55
2023-02-14T03:45:41.184Z,1017.59
2023-02-14T03:46:41.180Z,1017.59
2023-02-14T03:47:41.109Z,1017.51
2023-02-14T03:48:41.124Z,1017.52
2023-02-14T03:49:41.091Z,1017.63
2023-02-14T03:50:41.097Z,1017.60
2023-02-14T03:51:41.055Z,1017.62
2023-02-14T03:52:41.047Z,1017.52
2023-02-14T03:53:41.038Z,1017.59
2023-02-14T03:54:41.027Z,1017.60
2023-02-14T03:55:41.007Z,1017.61
2023-02-14T03:56:41.029Z,1017.68
2023-02-14T03:57:40.977Z,1017.65
2023-02-14T03:58:40.975Z,1017.63
2023-02-14T03:59:40.971Z,1017.67
2023-02-14T04:00:40.969Z,1017.71
2023-02-14T04:01:41.051Z,1017.73
2023-02-14T04:02:40.972Z,1017.68
2023-02-14T04:03:40.996Z,1017.72
2023-02-14T04:04:40.906Z,1017.71
2023-02-14T04:05:40.896Z,1017.75
2023-02-14T04:06:40.877Z,1017.74
2023-02-14T04:07:40.875Z,1017.74
2023-02-14T04:08:40.876Z,1017.73
2023-02-14T04:09:40.844Z,1017.70
2023-02-14T04:10:40.829Z,1017.80
2023-02-14T04:11:40.836Z,1017.72
2023-02-14T04:12:40.839Z,1017.73
2023-02-14T04:13:40.806Z,1017.78
2023-02-14T04:14:40.808Z,1017.71
2023-02-14T04:15:40.823Z,1017.75
2023-02-14T04:16:40.757Z,1017.74
2023-02-14T04:17:40.783Z,1017.73
2023-02-14T04:18:40.737Z,1017.71
2023-02-14T04:19:40.728Z,1017.67
2023-02-14T04:20:40.777Z,1017.65
2023-02-14T04:21:40.799Z,1017.67
2023-02-14T04:22:40.791Z,1017.69
2023-02-14T04:23:40.717Z,1017.70
2023-02-14T04:24:40.728Z,1017.62
2023-02-14T04:25:40.719Z,1017.70
2023-02-14T04:26:40.742Z,1017.60
2023-02-14T04:27:40.717Z,1017.74
2023-02-14T04:28:40.675Z,1017.73
2023-02-14T04:29:40.701Z,1017.68
2023-02-14T04:30:40.684Z,1017.69
2023-02-14T04:31:40.788Z,1017.60
2023-02-14T04:32:40.696Z,1017.66
2023-02-14T04:33:40.637Z,1017.67
2023-02-14T04:34:40.682Z,1017.67
2023-02-14T04:35:40.614Z,1017.70
2023-02-14T04:36:40.610Z,1017.68
2023-02-14T04:37:40.602Z,1017.71
2023-02-14T04:38:40.551Z,1017.74
2023-02-14T04:39:40.594Z,1017.76
2023-02-14T04:40:40.559Z,1017.69
2023-02-14T04:41:40.557Z,1017.74
2023-02-14T04:42:40.575Z,1017.74
2023-02-14T04:43:40.527Z,1017.71
2023-02-14T04:44:40.498Z,1017.68
2023-02-14T04:45:40.505Z,1017.74
2023-02-14T04:46:40.686Z,1017.74
2023-02-14T04:47:40.519Z,1017.69
2023-02-14T04:48:40.559Z,1017.75
2023-02-14T04:49:40.437Z,1017.69
2023-02-14T04:50:40.497Z,1017.64
2023-02-14T04:51:40.428Z,1017.71
2023-02-14T04:52:40.391Z,1017.76
2023-02-14T04:53:40.526Z,1017.77
2023-02-14T04:54:40.406Z,1017.79
2023-02-14T04:55:40.383Z,1017.76
2023-02-14T04:56:40.386Z,1017.73
2023-02-14T04:57:40.358Z,1017.70
2023-02-14T04:58:40.375Z,1017.72
2023-02-14T04:59:40.377Z,1017.68
2023-02-14T05:00:40.482Z,1017.72
2023-02-14T05:01:40.432Z,1017.69
2023-02-14T05:02:40.400Z,1017.65
2023-02-14T05:03:40.377Z,1017.69
2023-02-14T05:04:40.344Z,1017.67
2023-02-14T05:05:40.341Z,1017.68
2023-02-14T05:06:40.408Z,1017.65
2023-02-14T05:07:40.359Z,1017.66
2023-02-14T05:08:40.290Z,1017.61
2023-02-14T05:09:40.306Z,1017.68
2023-02-14T05:10:40.177Z,1017.76
2023-02-14T05:11:40.256Z,1017.73
2023-02-14T05:12:40.250Z,1017.69
2023-02-14T05:13:40.224Z,1017.75
2023-02-14T05:14:40.191Z,1017.72
2023-02-14T05:15:40.190Z,1017.66
2023-02-14T05:16:40.164Z,1017.74
2023-02-14T05:17:40.192Z,1017.75
2023-02-14T05:18:40.158Z,1017.79
2023-02-14T05:19:40.138Z,1017.74
2023-02-14T05:20:40.893Z,1017.74
2023-02-14T05:21:40.122Z,1017.71
2023-02-14T05:22:40.332Z,1017.76
2023-02-14T05:23:40.054Z,1017.79
2023-02-14T05:24:40.070Z,1017.77
2023-02-14T05:25:40.062Z,1017.70
2023-02-14T05:26:40.030Z,1017.72
2023-02-14T05:27:40.062Z,1017.66
2023-02-14T05:28:40.026Z,1017.68
2023-02-14T05:29:39.966Z,1017.68
2023-02-14T05:30:40.217Z,1017.65
2023-02-14T05:31:40.141Z,1017.74
2023-02-14T05:32:39.931Z,1017.78
2023-02-14T05:33:39.976Z,1017.78
2023-02-14T05:34:39.957Z,1017.77
2023-02-14T05:35:39.925Z,1017.73
2023-02-14T05:36:39.900Z,1017.78
2023-02-14T05:37:39.838Z,1017.84
2023-02-14T05:38:39.816Z,1017.81
2023-02-14T05:39:39.836Z,1017.86
2023-02-14T05:40:39.814Z,1017.78
2023-02-14T05:41:45.029Z,1017.74
2023-02-14T05:42:39.873Z,1017.81
2023-02-14T05:43:39.799Z,1017.72
2023-02-14T05:44:39.804Z,1017.76
2023-02-14T05:45:39.867Z,1017.79
2023-02-14T05:46:39.758Z,1017.84
2023-02-14T05:47:39.763Z,1017.78
2023-02-14T05:48:39.768Z,1017.78
2023-02-14T05:49:39.777Z,1017.80
2023-02-14T05:50:39.830Z,1017.81
2023-02-14T05:51:39.741Z,1017.81
2023-02-14T05:52:39.717Z,1017.77
2023-02-14T05:53:39.727Z,1017.78
2023-02-14T05:54:39.705Z,1017.79
2023-02-14T05:55:39.693Z,1017.81
2023-02-14T05:56:39.725Z,1017.85
2023-02-14T05:57:39.664Z,1017.85
2023-02-14T05:58:39.722Z,1017.88
2023-02-14T05:59:39.712Z,1017.82
2023-02-14T06:00:41.183Z,1017.79
2023-02-14T06:01:39.635Z,1017.77
2023-02-14T06:02:39.681Z,1017.79
2023-02-14T06:03:39.664Z,1017.76
2023-02-14T06:04:39.643Z,1017.81
2023-02-14T06:05:39.570Z,1017.79
2023-02-14T06:06:39.625Z,1017.83
2023-02-14T06:07:39.590Z,1017.80
2023-02-14T06:08:39.548Z,1017.81
2023-02-14T06:09:39.509Z,1017.79
2023-02-14T06:10:39.503Z,1017.86
2023-02-14T06:11:39.552Z,1017.83
2023-02-14T06:12:39.545Z,1017.84
2023-02-14T06:13:39.541Z,1017.85
2023-02-14T06:14:39.466Z,1017.85
2023-02-14T06:15:39.449Z,1017.87
2023-02-14T06:16:39.634Z,1017.90
2023-02-14T06:17:39.445Z,1017.94
2023-02-14T06:18:39.500Z,1017.86
2023-02-14T06:19:39.367Z,1017.87
2023-02-14T06:20:39.382Z,1017.87
2023-02-14T06:21:39.365Z,1017.89
2023-02-14T06:22:39.337Z,1017.82
2023-02-14T06:23:39.320Z,1017.84
2023-02-14T06:24:39.339Z,1017.79
2023-02-14T06:25:39.308Z,1017.83
2023-02-14T06:26:39.300Z,1017.83
2023-02-14T06:27:39.317Z,1017.85
2023-02-14T06:28:39.276Z,1017.85
2023-02-14T06:29:39.305Z,1017.79
2023-02-14T06:30:39.538Z,1017.85
2023-02-14T06:31:39.425Z,1017.90
2023-02-14T06:32:39.239Z,1017.85
2023-02-14T06:33:39.207Z,1017.84
2023-02-14T06:34:39.199Z,1017.84
2023-02-14T06:35:39.207Z,1017.82
2023-02-14T06:36:39.206Z,1017.87
2023-02-14T06:37:39.146Z,1017.87
2023-02-14T06:38:39.174Z,1017.87
2023-02-14T06:39:39.136Z,1017.89
2023-02-14T06:40:39.150Z,1017.88
2023-02-14T06:41:39.120Z,1017.86
2023-02-14T06:42:39.126Z,1017.93
2023-02-14T06:43:39.115Z,1017.87
2023-02-14T06:44:39.127Z,1017.83
2023-02-14T06:45:39.108Z,1017.85
2023-02-14T06:46:39.059Z,1017.84
2023-02-14T06:47:39.040Z,1017.86
2023-02-14T06:48:39.060Z,1017.88
2023-02-14T06:49:39.019Z,1017.85
2023-02-14T06:50:39.026Z,1017.88
2023-02-14T06:51:38.998Z,1017.88
2023-02-14T06:52:39.021Z,1017.91
2023-02-14T06:53:39.038Z,1017.89
2023-02-14T06:54:38.969Z,1017.87
2023-02-14T06:55:38.975Z,1017.86
2023-02-14T06:56:38.950Z,1017.90
2023-02-14T06:57:38.939Z,1017.84
2023-02-14T06:58:38.925Z,1017.78
2023-02-14T06:59:38.962Z,1017.94
2023-02-14T07:00:38.910Z,1017.84
2023-02-14T07:01:38.949Z,1017.83
2023-02-14T07:02:38.951Z,1017.86
2023-02-14T07:03:38.870Z,1017.80
2023-02-14T07:04:38.855Z,1017.78
2023-02-14T07:05:38.887Z,1017.76
2023-02-14T07:06:38.832Z,1017.79
2023-02-14T07:07:38.858Z,1017.79
2023-02-14T07:08:38.823Z,1017.78
2023-02-14T07:09:38.814Z,1017.76
2023-02-14T07:10:38.798Z,1017.74
2023-02-14T07:11:38.814Z,1017.74
2023-02-14T07:12:38.797Z,1017.71
2023-02-14T07:13:38.755Z,1017.79
2023-02-14T07:14:38.763Z,1017.80
2023-02-14T07:15:38.780Z,1017.78
2023-02-14T07:16:38.733Z,1017.82
2023-02-14T07:17:38.749Z,1017.81
2023-02-14T07:18:38.692Z,1017.85
2023-02-14T07:19:38.730Z,1017.85
2023-02-14T07:20:38.694Z,1017.83
2023-02-14T07:21:38.666Z,1017.85
2023-02-14T07:22:38.848Z,1017.83
2023-02-14T07:23:38.688Z,1017.84
2023-02-14T07:24:38.634Z,1017.90
2023-02-14T07:25:38.619Z,1017.84
2023-02-14T07:26:38.610Z,1017.92
2023-02-14T07:27:38.609Z,1017.83
2023-02-14T07:28:38.602Z,1017.89
2023-02-14T07:29:38.714Z,1017.91
2023-02-14T07:30:38.572Z,1017.86
2023-02-14T07:31:38.626Z,1017.96
2023-02-14T07:32:38.545Z,1017.91
2023-02-14T07:33:38.578Z,1017.94
2023-02-14T07:34:38.540Z,1017.91
2023-02-14T07:35:38.515Z,1017.91
2023-02-14T07:36:38.520Z,1017.91
2023-02-14T07:37:38.491Z,1017.90
2023-02-14T07:38:38.473Z,1017.82
2023-02-14T07:39:38.462Z,1017.85
2023-02-14T07:40:38.485Z,1017.83
2023-02-14T07:41:38.449Z,1017.85
2023-02-14T07:42:38.422Z,1017.85
2023-02-14T07:43:38.429Z,1017.85
2023-02-14T07:44:38.423Z,1017.87
2023-02-14T07:45:38.414Z,1017.85
2023-02-14T07:46:38.477Z,1017.86
2023-02-14T07:47:38.433Z,1017.88
2023-02-14T07:48:38.365Z,1017.83
2023-02-14T07:49:38.365Z,1017.86
2023-02-14T07:50:38.351Z,1017.83
2023-02-14T07:51:38.360Z,1017.86
2023-02-14T07:52:38.363Z,1017.84
2023-02-14T07:53:38.302Z,1017.83
2023-02-14T07:54:38.293Z,1017.84
2023-02-14T07:55:38.291Z,1017.84
2023-02-14T07:56:38.279Z,1017.86
2023-02-14T07:57:38.270Z,1017.84
2023-02-14T07:58:38.260Z,1017.87
2023-02-14T07:59:38.262Z,1017.83
2023-02-14T08:00:38.240Z,1017.86
2023-02-14T08:01:38.261Z,1017.73
2023-02-14T08:02:38.216Z,1017.67
2023-02-14T08:03:38.222Z,1017.73
2023-02-14T08:04:38.218Z,1017.69
2023-02-14T08:05:38.173Z,1017.68
2023-02-14T08:06:38.151Z,1017.66
2023-02-14T08:07:38.148Z,1017.74
2023-02-14T08:08:38.192Z,1017.65
2023-02-14T08:09:38.165Z,1017.68
2023-02-14T08:10:38.101Z,1017.63
2023-02-14T08:11:38.110Z,1017.66
2023-02-14T08:12:38.162Z,1017.67
2023-02-14T08:13:38.075Z,1017.68
2023-02-14T08:14:38.071Z,1017.68
2023-02-14T08:15:38.124Z,1017.70
2023-02-14T08:16:38.054Z,1017.74
2023-02-14T08:17:38.040Z,1017.68
2023-02-14T08:18:38.032Z,1017.72
2023-02-14T08:19:38.045Z,1017.75
2023-02-14T08:20:38.094Z,1017.69
2023-02-14T08:21:37.980Z,1017.75
2023-02-14T08:22:37.977Z,1017.76
2023-02-14T08:23:37.969Z,1017.72
2023-02-14T08:24:37.949Z,1017.72
2023-02-14T08:25:37.950Z,1017.73
2023-02-14T08:26:37.965Z,1017.73
2023-02-14T08:27:38.783Z,1017.71
2023-02-14T08:28:37.919Z,1017.71
2023-02-14T08:29:37.893Z,1017.74
2023-02-14T08:30:37.888Z,1017.74
2023-02-14T08:31:37.953Z,1017.76
2023-02-14T08:32:38.066Z,1017.71
2023-02-14T08:33:37.852Z,1017.75
2023-02-14T08:34:37.849Z,1017.74
2023-02-14T08:35:37.831Z,1017.77
2023-02-14T08:36:37.825Z,1017.69
2023-02-14T08:37:37.808Z,1017.79
2023-02-14T08:38:37.845Z,1017.70
2023-02-14T08:39:37.779Z,1017.74
2023-02-14T08:40:37.800Z,1017.70
2023-02-14T08:41:37.786Z,1017.71
2023-02-14T08:42:37.764Z,1017.68
2023-02-14T08:43:37.729Z,1017.69
2023-02-14T08:44:37.771Z,1017.66
2023-02-14T08:45:37.776Z,1017.72
2023-02-14T08:46:37.771Z,1017.71
2023-02-14T08:47:37.688Z,1017.74
2023-02-14T08:48:39.359Z,1017.74
2023-02-14T08:49:37.678Z,1017.70
2023-02-14T08:50:37.734Z,1017.71
2023-02-14T08:51:37.668Z,1017.77
2023-02-14T08:52:37.693Z,1017.73
2023-02-14T08:53:37.734Z,1017.73
2023-02-14T08:54:37.665Z,1017.72
2023-02-14T08:55:37.625Z,1017.72
2023-02-14T08:56:37.665Z,1017.72
2023-02-14T08:57:37.574Z,1017.68
2023-02-14T08:58:37.570Z,1017.73
2023-02-14T08:59:37.569Z,1017.69
2023-02-14T09:00:37.571Z,1017.69
2023-02-14T09:01:37.535Z,1017.72
2023-02-14T09:02:37.541Z,1017.71
2023-02-14T09:03:38.529Z,1017.69
2023-02-14T09:04:37.543Z,1017.72
2023-02-14T09:05:37.508Z,1017.72
2023-02-14T09:06:37.491Z,1017.72
2023-02-14T09:07:37.453Z,1017.72
2023-02-14T09:08:37.560Z,1017.71
2023-02-14T09:09:37.514Z,1017.70
2023-02-14T09:10:37.568Z,1017.70
2023-02-14T09:11:37.416Z,1017.77
2023-02-14T09:12:37.488Z,1017.72
2023-02-14T09:13:37.416Z,1017.71
2023-02-14T09:14:37.382Z,1017.73
2023-02-14T09:15:37.384Z,1017.71
2023-02-14T09:16:37.411Z,1017.64
2023-02-14T09:17:37.415Z,1017.69
2023-02-14T09:18:37.347Z,1017.67
2023-02-14T09:19:37.375Z,1017.66
2023-02-14T09:20:37.389Z,1017.64
2023-02-14T09:21:37.339Z,1017.68
2023-02-14T09:22:37.310Z,1017.69
2023-02-14T09:23:37.286Z,1017.68
2023-02-14T09:24:37.273Z,1017.68
2023-02-14T09:25:37.647Z,1017.64
2023-02-14T09:26:37.256Z,1017.64
2023-02-14T09:27:37.278Z,1017.63
2023-02-14T09:28:37.246Z,1017.61
2023-02-14T09:29:37.205Z,1017.61
2023-02-14T09:30:37.228Z,1017.65
2023-02-14T09:31:37.492Z,1017.66
2023-02-14T09:32:37.238Z,1017.62
2023-02-14T09:33:37.164Z,1017.63
2023-02-14T09:34:37.166Z,1017.69
2023-02-14T09:35:37.297Z,1017.68
2023-02-14T09:36:37.209Z,1017.62
2023-02-14T09:37:37.156Z,1017.68
2023-02-14T09:38:37.105Z,1017.65
2023-02-14T09:39:37.161Z,1017.65
2023-02-14T09:40:37.097Z,1017.71
2023-02-14T09:41:37.069Z,1017.74
2023-02-14T09:42:37.163Z,1017.72
2023-02-14T09:43:37.045Z,1017.71
2023-02-14T09:44:37.046Z,1017.75
2023-02-14T09:45:37.098Z,1017.70
2023-02-14T09:46:37.024Z,1017.76
2023-02-14T09:47:37.007Z,1017.80
2023-02-14T09:48:37.016Z,1017.75
2023-02-14T09:49:37.088Z,1017.74
2023-02-14T09:50:37.006Z,1017.78
2023-02-14T09:51:36.971Z,1017.83
2023-02-14T09:52:36.976Z,1017.78
2023-02-14T09:53:37.033Z,1017.75
2023-02-14T09:54:36.980Z,1017.70
2023-02-14T09:55:36.937Z,1017.76
2023-02-14T09:56:49.520Z,1017.72
2023-02-14T09:57:37.923Z,1017.74
2023-02-14T09:58:36.918Z,1017.75
2023-02-14T09:59:36.889Z,1017.76
2023-02-14T10:00:37.006Z,1017.76
2023-02-14T10:01:36.922Z,1017.66
2023-02-14T10:02:37.022Z,1017.63
2023-02-14T10:03:36.946Z,1017.71
2023-02-14T10:04:39.600Z,1017.69
2023-02-14T10:05:36.881Z,1017.73
2023-02-14T10:06:37.013Z,1017.63
2023-02-14T10:07:37.603Z,1017.66
2023-02-14T10:08:36.848Z,1017.62
2023-02-14T10:09:36.820Z,1017.69
2023-02-14T10:10:39.463Z,1017.65
2023-02-14T10:11:36.748Z,1017.68
2023-02-14T10:12:37.509Z,1017.71
2023-02-14T10:13:37.672Z,1017.74
2023-02-14T10:14:36.926Z,1017.70
2023-02-14T10:15:36.708Z,1017.71
2023-02-14T10:16:36.700Z,1017.69
2023-02-14T10:17:36.741Z,1017.72
2023-02-14T10:18:36.711Z,1017.64
2023-02-14T10:19:36.664Z,1017.66
2023-02-14T10:20:36.668Z,1017.72
2023-02-14T10:21:36.647Z,1017.66
2023-02-14T10:22:36.630Z,1017.71
2023-02-14T10:23:36.620Z,1017.77
2023-02-14T10:24:36.628Z,1017.67
2023-02-14T10:25:36.579Z,1017.70
2023-02-14T10:26:36.582Z,1017.71
2023-02-14T10:27:36.580Z,1017.75
2023-02-14T10:28:36.587Z,1017.69
2023-02-14T10:29:36.610Z,1017.76
2023-02-14T10:30:36.659Z,1017.68
2023-02-14T10:31:36.619Z,1017.71
2023-02-14T10:32:36.501Z,1017.61
2023-02-14T10:33:36.532Z,1017.72
2023-02-14T10:34:36.511Z,1017.68
2023-02-14T10:35:36.520Z,1017.65
2023-02-14T10:36:36.459Z,1017.67
2023-02-14T10:37:36.456Z,1017.61
2023-02-14T10:38:36.451Z,1017.69
2023-02-14T10:39:36.427Z,1017.67
2023-02-14T10:40:36.416Z,1017.70
2023-02-14T10:41:36.447Z,1017.63
2023-02-14T10:42:36.401Z,1017.63
2023-02-14T10:43:36.385Z,1017.67
2023-02-14T10:44:36.413Z,1017.68
2023-02-14T10:45:36.400Z,1017.70
2023-02-14T10:46:36.374Z,1017.68
2023-02-14T10:47:36.391Z,1017.65
2023-02-14T10:48:36.322Z,1017.64
2023-02-14T10:49:36.422Z,1017.64
2023-02-14T10:50:36.318Z,1017.62
2023-02-14T10:51:36.303Z,1017.58
2023-02-14T10:52:36.294Z,1017.60
2023-02-14T10:53:36.334Z,1017.61
2023-02-14T10:54:36.262Z,1017.60
2023-02-14T10:55:36.287Z,1017.52
2023-02-14T10:56:36.242Z,1017.52
2023-02-14T10:57:36.248Z,1017.49
2023-02-14T10:58:36.224Z,1017.50
2023-02-14T10:59:36.316Z,1017.46
2023-02-14T11:00:36.199Z,1017.43
2023-02-14T11:01:36.229Z,1017.46
2023-02-14T11:02:36.182Z,1017.44
2023-02-14T11:03:36.179Z,1017.45
2023-02-14T11:04:36.185Z,1017.44
2023-02-14T11:05:36.161Z,1017.42
2023-02-14T11:06:36.149Z,1017.41
2023-02-14T11:07:36.125Z,1017.47
2023-02-14T11:08:36.130Z,1017.42
2023-02-14T11:09:36.270Z,1017.34
2023-02-14T11:10:36.283Z,1017.40
2023-02-14T11:11:36.107Z,1017.43
2023-02-14T11:12:36.080Z,1017.41
2023-02-14T11:13:36.058Z,1017.38
2023-02-14T11:14:36.148Z,1017.32
2023-02-14T11:15:36.064Z,1017.30
2023-02-14T11:16:36.109Z,1017.29
2023-02-14T11:17:36.046Z,1017.29
2023-02-14T11:18:36.218Z,1017.31
2023-02-14T11:19:37.334Z,1017.22
2023-02-14T11:20:35.993Z,1017.21
2023-02-14T11:21:35.989Z,1017.26
2023-02-14T11:22:35.986Z,1017.22
2023-02-14T11:23:35.962Z,1017.23
2023-02-14T11:24:35.946Z,1017.22
2023-02-14T11:25:35.919Z,1017.21
2023-02-14T11:26:35.969Z,1017.20
2023-02-14T11:27:37.893Z,1017.22
2023-02-14T11:28:35.967Z,1017.19
2023-02-14T11:29:35.887Z,1017.23
2023-02-14T11:30:36.030Z,1017.23
2023-02-14T11:31:35.985Z,1017.17
2023-02-14T11:32:35.855Z,1017.13
2023-02-14T11:33:36.058Z,1017.22
2023-02-14T11:34:35.872Z,1017.21
2023-02-14T11:35:35.814Z,1017.21
2023-02-14T11:36:35.798Z,1017.20
2023-02-14T11:37:35.787Z,1017.19
2023-02-14T11:38:35.804Z,1017.22
2023-02-14T11:39:35.805Z,1017.14
2023-02-14T11:40:35.760Z,1017.14
2023-02-14T11:41:35.754Z,1017.12
2023-02-14T11:42:35.747Z,1017.15
2023-02-14T11:43:35.714Z,1017.13
2023-02-14T11:44:35.700Z,1017.11
2023-02-14T11:45:35.739Z,1017.10
2023-02-14T11:46:38.490Z,1017.10
2023-02-14T11:47:36.739Z,1017.04
2023-02-14T11:48:38.620Z,1017.07
2023-02-14T11:49:35.643Z,1017.01
2023-02-14T11:50:35.668Z,1017.02
2023-02-14T11:51:35.624Z,1017.03
2023-02-14T11:52:35.621Z,1016.95
2023-02-14T11:53:35.594Z,1016.97
2023-02-14T11:54:35.628Z,1016.92
2023-02-14T11:55:35.580Z,1016.92
2023-02-14T11:56:35.593Z,1016.89
2023-02-14T11:57:35.564Z,1016.95
2023-02-14T11:58:35.572Z,1016.93
2023-02-14T11:59:35.543Z,1016.86
2023-02-14T12:00:35.522Z,1016.87
2023-02-14T12:01:35.575Z,1016.91
2023-02-14T12:02:35.564Z,1016.88
2023-02-14T12:03:35.518Z,1016.92
2023-02-14T12:04:45.614Z,1016.90
2023-02-14T12:05:36.488Z,1016.79